Time;durP1;ratioP1;P1;durP2;ratioP2;P2;SDS_P1;SDS_P2;PMS_P1;PMS_P2;Temp;Humidity;BMP_temperature;BMP_pressure;BME280_temperature;BME280_humidity;BME280_pressure;Samples;Min_cycle;Max_cycle;Signal;HPM_P1;HPM_P2
2022/12/23 00:01:58;;;;;;;;;57.50;46.75;;;;;4.60;74.17;101169.66;146616;602;46016;-74
2022/12/23 00:04:53;;;;;;;;;58.50;46.75;;;;;4.58;75.13;101168.66;146622;597;46020;-75
2022/12/23 00:07:46;;;;;;;;;61.75;47.50;;;;;4.58;75.76;101169.53;146614;569;45016;-74
2022/12/23 00:10:43;;;;;;;;;58.25;46.75;;;;;4.58;75.40;101168.66;146619;594;46010;-74
2022/12/23 00:16:48;;;;;;;;;54.75;43.25;;;;;4.48;75.15;101166.06;146616;583;46020;-75
2022/12/23 00:19:41;;;;;;;;;54.00;40.50;;;;;4.43;75.52;101168.28;146612;581;46012;-74
2022/12/23 00:26:04;;;;;;;;;47.75;38.25;;;;;4.42;76.05;101169.03;146612;572;46017;-73
2022/12/23 00:29:01;;;;;;;;;52.75;42.00;;;;;4.44;76.08;101167.50;146616;569;46020;-73
2022/12/23 00:31:53;;;;;;;;;49.50;40.00;;;;;4.44;75.53;101164.94;146613;570;46038;-73
2022/12/23 00:34:45;;;;;;;;;52.25;40.50;;;;;4.44;75.26;101164.94;146615;572;46010;-75
2022/12/23 00:37:38;;;;;;;;;50.00;37.75;;;;;4.44;75.54;101169.16;146612;590;46016;-74
2022/12/23 00:43:43;;;;;;;;;49.50;36.75;;;;;4.38;75.31;101161.84;146613;674;46016;-75
2022/12/23 00:46:35;;;;;;;;;49.25;40.75;;;;;4.34;75.55;101163.28;146621;564;46010;-77
2022/12/23 00:49:42;;;;;;;;;44.00;35.75;;;;;4.19;75.37;101145.69;146614;611;46016;-82
2022/12/23 00:52:40;;;;;;;;;51.50;40.75;;;;;4.26;75.89;101161.72;146620;602;46014;-76
2022/12/23 00:55:33;;;;;;;;;50.75;37.25;;;;;4.25;76.47;101161.63;146615;625;45017;-76
2022/12/23 00:58:25;;;;;;;;;45.75;38.25;;;;;4.21;76.95;101162.13;146619;563;45020;-81
2022/12/23 01:07:41;;;;;;;;;49.25;37.25;;;;;4.16;77.49;101144.66;146614;572;46012;-77
2022/12/23 01:10:38;;;;;;;;;53.00;37.50;;;;;4.23;76.89;101145.19;146616;601;46014;-76
2022/12/23 01:13:33;;;;;;;;;51.25;37.75;;;;;4.28;77.24;101138.75;146615;604;46016;-76
2022/12/23 01:16:25;;;;;;;;;53.50;40.00;;;;;4.34;76.76;101147.88;146621;571;46010;-75
2022/12/23 01:19:18;;;;;;;;;53.50;38.25;;;;;4.32;76.55;101151.06;146616;658;46016;-75
2022/12/23 01:22:10;;;;;;;;;42.75;35.75;;;;;4.27;77.04;101152.34;146619;585;46010;-76
2022/12/23 01:25:02;;;;;;;;;39.00;32.75;;;;;4.24;76.87;101154.69;146614;636;47012;-77
2022/12/23 01:27:54;;;;;;;;;44.00;34.25;;;;;4.21;76.99;101151.87;146617;563;46020;-78
2022/12/23 01:30:46;;;;;;;;;44.25;35.50;;;;;4.18;76.76;101141.34;146618;675;46017;-77
2022/12/23 01:33:42;;;;;;;;;44.50;33.75;;;;;4.15;77.05;101148.00;146618;594;46021;-74
2022/12/23 01:36:35;;;;;;;;;36.00;33.50;;;;;4.10;76.67;101136.44;146617;582;46012;-74
2022/12/23 01:39:27;;;;;;;;;46.75;33.00;;;;;4.09;76.60;101136.34;146620;592;46021;-75
2022/12/23 01:42:45;;;;;;;;;39.00;31.75;;;;;4.05;77.62;101135.19;146617;681;46016;-75
2022/12/23 01:45:37;;;;;;;;;43.25;33.75;;;;;4.04;77.40;101127.34;146622;566;46010;-75
2022/12/23 01:48:31;;;;;;;;;35.75;31.25;;;;;4.02;77.03;101132.37;146616;619;46016;-76
2022/12/23 01:51:33;;;;;;;;;35.50;27.50;;;;;4.06;76.75;101128.37;146620;603;46020;-75
2022/12/23 01:54:27;;;;;;;;;33.50;30.00;;;;;4.10;77.24;101128.75;146615;570;46916;-75
2022/12/23 01:57:23;;;;;;;;;35.25;32.00;;;;;4.15;77.32;101121.47;146621;578;46010;-75
2022/12/23 02:03:43;;;;;;;;;31.75;27.75;;;;;4.14;76.98;101107.72;146618;612;46014;-75
2022/12/23 02:09:53;;;;;;;;;32.75;25.75;;;;;4.15;78.01;101096.69;146620;565;46021;-75
2022/12/23 02:13:15;;;;;;;;;27.50;23.50;;;;;2.50;77.35;100795.84;146619;673;46012;-76
2022/12/23 02:16:15;;;;;;;;;29.25;23.25;;;;;4.18;78.13;101095.16;146616;593;46020;-75
2022/12/23 02:19:27;;;;;;;;;29.00;24.00;;;;;4.18;77.29;101087.44;146613;638;46916;-74
2022/12/23 02:23:13;;;;;;;;;28.25;24.75;;;;;2.56;76.76;100800.59;146618;580;46020;-73
2022/12/23 02:26:42;;;;;;;;;28.50;23.50;;;;;4.27;77.21;101076.25;146618;770;46012;-78
2022/12/23 02:30:37;;;;;;;;;28.50;22.50;;;;;4.35;77.01;101082.00;146620;614;46010;-72
2022/12/23 02:34:01;;;;;;;;;22.00;20.00;;;;;4.40;77.61;101075.59;146618;604;46016;-78
2022/12/23 02:37:35;;;;;;;;;11.25;3.75;;;;;4.40;76.76;101109.84;146621;593;46010;-79
2022/12/23 02:40:59;;;;;;;;;33.25;25.25;;;;;4.45;77.01;101070.81;146618;630;46014;-78
2022/12/23 02:44:18;;;;;;;;;27.50;24.00;;;;;4.47;78.08;101079.53;146618;605;46020;-80
2022/12/23 02:47:19;;;;;;;;;30.25;25.25;;;;;4.48;77.62;101084.78;146615;634;46016;-81
2022/12/23 02:50:31;;;;;;;;;32.25;24.00;;;;;4.50;77.26;101095.22;146618;565;46010;-81
2022/12/23 02:53:45;;;;;;;;;31.75;24.25;;;;;4.51;77.98;101090.19;146617;630;46017;-81
2022/12/23 02:56:40;;;;;;;;;32.25;25.00;;;;;4.47;77.64;101090.72;146621;639;46020;-81
2022/12/23 02:59:39;;;;;;;;;28.75;25.50;;;;;4.46;77.88;101088.03;146616;571;46012;-80
2022/12/23 03:02:34;;;;;;;;;31.00;26.25;;;;;4.45;77.83;101092.25;146617;607;46014;-72
2022/12/23 03:05:54;;;;;;;;;31.00;25.50;;;;;4.45;77.09;101094.81;146617;575;46016;-71
2022/12/23 03:08:48;;;;;;;;;30.25;25.75;;;;;4.50;78.12;101093.53;146621;599;46011;-72
2022/12/23 03:12:00;;;;;;;;;26.25;23.25;;;;;4.51;77.21;101097.00;146615;575;46916;-75
2022/12/23 03:15:14;;;;;;;;;28.75;23.75;;;;;4.51;77.99;101102.13;146617;572;46020;-74
2022/12/23 03:19:03;;;;;;;;;29.75;23.00;;;;;3.02;76.55;100836.00;146619;641;46020;-74
2022/12/23 03:22:46;;;;;;;;;28.75;24.00;;;;;2.75;76.33;100793.66;146619;621;46021;-74
2022/12/23 03:26:13;;;;;;;;;32.00;26.50;;;;;1.37;75.91;100554.44;146612;614;46916;-75
2022/12/23 03:29:15;;;;;;;;;35.25;28.50;;;;;4.45;77.50;101093.91;146620;565;46021;-73
2022/12/23 03:32:23;;;;;;;;;36.75;28.00;;;;;4.44;77.26;101090.47;146614;625;46917;-77
2022/12/23 03:35:19;;;;;;;;;28.50;26.75;;;;;4.45;77.89;101094.81;146621;600;46020;-79
2022/12/23 03:38:19;;;;;;;;;32.75;28.25;;;;;4.44;77.74;101089.56;146616;606;46916;-72
2022/12/23 03:41:29;;;;;;;;;41.25;30.75;;;;;4.42;76.73;101094.56;146618;563;46020;-72
2022/12/23 03:44:49;;;;;;;;;30.25;26.50;;;;;2.75;76.38;100798.78;146616;672;46017;-73
2022/12/23 03:47:47;;;;;;;;;42.75;34.50;;;;;4.33;77.01;101070.72;146615;648;46020;-73
2022/12/23 03:50:42;;;;;;;;;36.25;30.75;;;;;4.45;77.46;101088.78;146614;578;46014;-73
2022/12/23 03:53:41;;;;;;;;;42.00;34.00;;;;;4.40;77.36;101065.31;146620;622;46020;-73
2022/12/23 03:56:57;;;;;;;;;41.00;32.25;;;;;4.53;77.37;101098.91;146615;563;46016;-74
2022/12/23 03:59:59;;;;;;;;;51.25;36.75;;;;;4.58;77.84;101089.03;146621;656;46020;-73
2022/12/23 04:03:23;;;;;;;;;51.00;38.75;;;;;3.03;76.80;100814.78;146614;631;46016;-75
2022/12/23 04:06:23;;;;;;;;;52.50;39.00;;;;;4.59;77.80;101093.38;146619;629;46020;-72
2022/12/23 04:09:17;;;;;;;;;55.00;41.50;;;;;4.57;77.27;101090.69;146617;589;46014;-74
2022/12/23 04:12:11;;;;;;;;;49.00;38.00;;;;;4.52;77.73;101084.28;146621;608;45020;-74
2022/12/23 04:15:04;;;;;;;;;49.25;38.50;;;;;4.48;77.33;101097.63;146615;581;46014;-77
2022/12/23 04:18:01;;;;;;;;;52.25;39.50;;;;;4.43;77.08;101096.38;146618;643;46020;-77
2022/12/23 04:20:53;;;;;;;;;48.25;36.50;;;;;4.40;77.04;101094.47;146616;651;46015;-74
2022/12/23 04:23:46;;;;;;;;;51.50;38.50;;;;;4.36;76.89;101095.00;146618;571;46020;-75
2022/12/23 04:26:41;;;;;;;;;52.75;36.50;;;;;4.33;77.12;101097.31;146613;661;47012;-79
2022/12/23 04:29:33;;;;;;;;;44.00;35.50;;;;;4.29;77.43;101089.22;146619;595;46021;-78
2022/12/23 04:32:32;;;;;;;;;45.75;36.75;;;;;4.31;77.25;101087.69;146614;640;46016;-78
2022/12/23 04:35:27;;;;;;;;;47.25;34.75;;;;;4.32;77.29;101092.91;146618;576;46020;-73
2022/12/23 04:38:19;;;;;;;;;50.50;39.50;;;;;4.32;76.82;101089.47;146618;583;46012;-75
2022/12/23 04:41:11;;;;;;;;;47.50;34.75;;;;;4.31;77.67;101090.25;146619;599;46020;-76
2022/12/23 04:44:05;;;;;;;;;47.75;36.75;;;;;4.22;77.54;101077.53;146616;578;46017;-76
2022/12/23 04:46:57;;;;;;;;;51.00;39.25;;;;;4.13;76.51;101087.94;146617;639;45028;-75
2022/12/23 04:49:52;;;;;;;;;46.00;36.75;;;;;4.08;77.55;101086.69;146615;608;46017;-78
2022/12/23 04:52:44;;;;;;;;;47.50;38.25;;;;;4.02;76.52;101099.00;146616;613;46010;-76
2022/12/23 04:55:39;;;;;;;;;48.00;38.25;;;;;3.99;77.00;101096.19;146614;589;46016;-77
2022/12/23 04:58:34;;;;;;;;;42.75;36.75;;;;;4.00;77.36;101094.53;146618;668;46021;-76
2022/12/23 05:01:29;;;;;;;;;42.75;36.00;;;;;3.98;77.24;101094.37;146617;588;46014;-78
2022/12/23 05:04:22;;;;;;;;;43.25;33.75;;;;;3.92;76.95;101086.16;146620;582;46010;-74
2022/12/23 05:07:18;;;;;;;;;49.50;34.75;;;;;3.84;78.38;101084.66;146616;592;46014;-73
2022/12/23 05:10:13;;;;;;;;;45.75;34.25;;;;;3.76;78.11;101091.69;146614;585;46010;-75
2022/12/23 05:13:05;;;;;;;;;35.75;31.25;;;;;3.77;78.63;101093.50;146610;595;46017;-74
2022/12/23 05:15:59;;;;;;;;;39.00;33.00;;;;;3.81;78.65;101092.09;146616;631;46020;-75
2022/12/23 05:18:51;;;;;;;;;38.50;32.00;;;;;3.80;78.39;101091.19;146615;569;46016;-73
2022/12/23 05:21:43;;;;;;;;;39.50;28.75;;;;;3.85;78.08;101106.97;146614;600;46021;-73
2022/12/23 05:24:36;;;;;;;;;40.25;31.25;;;;;3.85;78.08;101104.41;146616;577;46014;-73
2022/12/23 05:27:28;;;;;;;;;43.75;34.25;;;;;3.80;76.97;101114.28;146618;746;46011;-72
2022/12/23 05:30:20;;;;;;;;;55.25;39.25;;;;;3.64;77.72;101104.37;146617;628;46012;-72
2022/12/23 05:33:14;;;;;;;;;45.00;37.75;;;;;3.68;78.42;101126.06;146619;614;46010;-72
2022/12/23 05:36:07;;;;;;;;;46.00;37.25;;;;;3.64;78.35;101129.13;146616;575;46017;-71
2022/12/23 05:38:59;;;;;;;;;48.75;39.00;;;;;3.58;78.45;101118.34;146617;574;46020;-72
2022/12/23 05:41:54;;;;;;;;;51.25;39.00;;;;;3.57;78.82;101121.69;146618;593;45016;-71
2022/12/23 05:44:49;;;;;;;;;42.25;35.50;;;;;3.56;78.82;101120.78;146619;618;46021;-72
2022/12/23 05:47:43;;;;;;;;;51.50;38.00;;;;;3.57;78.89;101114.00;146610;591;46012;-71
2022/12/23 05:50:36;;;;;;;;;44.75;36.00;;;;;3.57;78.11;101119.13;146619;615;46021;-74
2022/12/23 05:53:30;;;;;;;;;41.25;33.00;;;;;3.59;78.63;101118.47;146611;631;46016;-74
2022/12/23 05:56:23;;;;;;;;;53.75;41.25;;;;;3.63;78.68;101125.66;146618;597;46010;-77
2022/12/23 05:59:15;;;;;;;;;43.25;33.50;;;;;3.69;78.34;101131.31;146616;606;46016;-77
2022/12/23 06:02:08;;;;;;;;;47.00;35.75;;;;;3.67;77.53;101122.56;146614;595;46020;-78
2022/12/23 06:05:00;;;;;;;;;53.50;40.25;;;;;3.63;78.27;101138.47;146615;565;46017;-77
2022/12/23 06:07:52;;;;;;;;;43.00;34.00;;;;;3.68;78.58;101141.47;146613;566;46020;-76
2022/12/23 06:10:44;;;;;;;;;48.75;38.00;;;;;3.69;78.65;101150.94;146612;606;46016;-77
2022/12/23 06:13:36;;;;;;;;;50.50;38.75;;;;;3.73;78.41;101159.78;146619;569;46010;-70
2022/12/23 06:16:30;;;;;;;;;51.00;39.25;;;;;3.75;78.05;101151.47;146616;588;46014;-76
2022/12/23 06:19:22;;;;;;;;;50.75;36.50;;;;;3.79;77.75;101160.31;146620;565;46021;-74
2022/12/23 06:22:14;;;;;;;;;49.75;39.50;;;;;3.81;78.36;101146.84;146617;631;45017;-76
2022/12/23 06:25:07;;;;;;;;;53.25;38.50;;;;;3.85;78.48;101142.88;146618;593;46020;-75
2022/12/23 06:27:59;;;;;;;;;52.75;38.75;;;;;3.54;78.56;101075.25;146615;724;45916;-78
2022/12/23 06:30:59;;;;;;;;;50.00;37.00;;;;;3.90;78.47;101133.91;146618;578;45020;-81
2022/12/23 06:33:51;;;;;;;;;50.00;37.00;;;;;3.97;78.66;101130.19;146615;564;46016;-76
2022/12/23 06:36:43;;;;;;;;;49.00;36.50;;;;;4.04;78.86;101135.06;146616;620;47014;-79
2022/12/23 06:39:37;;;;;;;;;49.50;37.25;;;;;4.13;79.47;101135.81;146613;590;46014;-80
2022/12/23 06:42:29;;;;;;;;;42.00;34.50;;;;;4.21;78.77;101133.91;146616;637;46021;-79
2022/12/23 06:45:22;;;;;;;;;58.50;44.50;;;;;4.40;79.86;101137.22;146614;619;45016;-79
2022/12/23 06:48:16;;;;;;;;;64.25;49.00;;;;;4.81;79.68;101139.69;146614;695;46020;-79
2022/12/23 06:51:25;;;;;;;;;54.00;40.50;;;;;5.56;82.44;101145.63;146611;597;46012;-77
2022/12/23 06:54:17;;;;;;;;;50.25;35.75;;;;;6.36;81.11;101132.03;146617;614;45020;-78
2022/12/23 06:57:10;;;;;;;;;50.75;39.00;;;;;7.11;78.01;101134.03;146616;571;46014;-78
2022/12/23 07:00:02;;;;;;;;;54.00;39.25;;;;;7.78;75.37;101136.16;146616;738;46020;-76
2022/12/23 07:03:07;;;;;;;;;45.75;36.50;;;;;8.50;75.86;101134.97;146613;607;46016;-79
2022/12/23 07:05:59;;;;;;;;;50.75;39.00;;;;;9.33;73.45;101145.50;146613;607;45032;-78
2022/12/23 07:09:01;;;;;;;;;43.25;36.25;;;;;10.14;68.45;101142.69;146612;604;46012;-78
2022/12/23 07:11:55;;;;;;;;;54.25;41.50;;;;;10.89;66.07;101139.31;146612;591;46014;-77
2022/12/23 07:14:47;;;;;;;;;52.25;42.00;;;;;11.50;63.18;101141.81;146615;570;46014;-72
2022/12/23 07:17:43;;;;;;;;;58.00;45.75;;;;;11.99;62.19;101152.22;146612;604;46020;-73
2022/12/23 07:20:36;;;;;;;;;72.25;54.50;;;;;12.52;59.13;101153.19;146610;653;46014;-72
2022/12/23 07:23:32;;;;;;;;;66.25;49.25;;;;;12.74;56.24;101148.25;146611;634;46014;-72
2022/12/23 07:26:27;;;;;;;;;72.50;54.75;;;;;12.65;56.46;101148.69;146612;652;46016;-77
2022/12/23 07:29:22;;;;;;;;;60.00;46.50;;;;;12.49;58.42;101146.09;146614;577;45048;-75
2022/12/23 07:32:17;;;;;;;;;62.25;47.25;;;;;12.44;57.80;101147.59;146609;596;46016;-73
2022/12/23 07:35:10;;;;;;;;;52.50;40.00;;;;;12.35;57.05;101144.53;146613;573;46020;-79
2022/12/23 07:38:03;;;;;;;;;55.75;44.75;;;;;12.21;57.43;101136.03;146614;570;46012;-76
2022/12/23 07:40:56;;;;;;;;;58.50;42.50;;;;;12.00;57.19;101141.91;146615;572;45020;-77
2022/12/23 07:43:48;;;;;;;;;54.25;41.75;;;;;11.83;59.88;101141.81;146613;579;46036;-75
2022/12/23 07:46:44;;;;;;;;;53.25;42.00;;;;;11.91;59.70;101146.63;146612;582;46020;-73
2022/12/23 07:49:36;;;;;;;;;50.25;38.50;;;;;12.10;59.00;101142.41;146613;581;46017;-73
2022/12/23 07:52:28;;;;;;;;;57.00;43.00;;;;;12.23;57.59;101147.41;146616;605;46010;-72
2022/12/23 07:55:24;;;;;;;;;59.75;45.00;;;;;12.21;57.64;101152.53;146612;595;46017;-72
2022/12/23 07:58:19;;;;;;;;;57.00;44.75;;;;;12.19;58.13;101161.06;146618;640;45021;-76
2022/12/23 08:01:11;;;;;;;;;65.25;48.75;;;;;12.18;57.61;101164.47;146610;609;46016;-74
2022/12/23 08:04:07;;;;;;;;;65.50;50.25;;;;;12.19;57.47;101176.66;146615;665;46021;-74
2022/12/23 08:06:59;;;;;;;;;58.75;45.75;;;;;12.04;57.93;101173.28;146611;566;46025;-73
2022/12/23 08:09:52;;;;;;;;;60.75;47.50;;;;;11.89;59.33;101176.84;146614;578;46010;-74
2022/12/23 08:12:45;;;;;;;;;50.00;40.75;;;;;11.84;59.37;101177.34;146612;628;46016;-74
2022/12/23 08:15:38;;;;;;;;;54.00;42.00;;;;;11.84;59.24;101173.09;146617;570;45020;-73
2022/12/23 08:18:34;;;;;;;;;53.00;41.25;;;;;11.87;59.96;101170.69;146611;610;46017;-73
2022/12/23 08:21:26;;;;;;;;;54.25;42.25;;;;;11.86;59.83;101171.47;146616;593;46010;-73
2022/12/23 08:24:19;;;;;;;;;52.75;43.25;;;;;11.82;59.89;101166.91;146612;576;46016;-72
2022/12/23 08:27:16;;;;;;;;;55.75;43.25;;;;;11.77;60.91;101163.16;146615;629;46020;-73
2022/12/23 08:30:09;;;;;;;;;58.25;44.75;;;;;11.75;59.71;101167.41;146615;563;46012;-73
2022/12/23 08:33:01;;;;;;;;;49.00;40.00;;;;;11.64;60.81;101172.00;146616;584;46020;-73
2022/12/23 08:35:59;;;;;;;;;52.75;41.25;;;;;11.57;61.73;101160.38;146614;579;45016;-72
2022/12/23 08:38:55;;;;;;;;;56.00;44.00;;;;;11.64;61.52;101164.19;146615;630;46020;-73
2022/12/23 08:41:50;;;;;;;;;46.50;38.00;;;;;11.75;61.15;101164.78;146613;564;46012;-73
2022/12/23 08:44:45;;;;;;;;;40.75;32.00;;;;;11.76;61.19;101162.25;146614;577;46020;-73
2022/12/23 08:47:41;;;;;;;;;45.25;36.00;;;;;11.82;60.61;101159.09;146614;573;46016;-73
2022/12/23 08:50:34;;;;;;;;;38.25;33.50;;;;;11.90;60.14;101155.25;146615;623;46020;-73
2022/12/23 08:53:28;;;;;;;;;39.50;34.25;;;;;11.91;60.25;101149.22;146613;576;46012;-73
2022/12/23 08:56:24;;;;;;;;;41.25;32.50;;;;;11.95;60.79;101145.97;146616;587;46010;-73
2022/12/23 08:59:18;;;;;;;;;42.75;34.50;;;;;12.01;61.06;101137.59;146612;583;46014;-74
2022/12/23 09:02:16;;;;;;;;;46.25;33.50;;;;;12.17;60.86;101141.87;146615;575;46010;-74
2022/12/23 09:05:11;;;;;;;;;42.75;33.75;;;;;12.32;59.41;101137.47;146612;631;46016;-74
2022/12/23 09:08:05;;;;;;;;;39.50;32.00;;;;;12.43;59.46;101145.84;146615;566;46020;-73
2022/12/23 09:10:57;;;;;;;;;28.50;27.25;;;;;12.49;58.99;101138.31;146612;621;46016;-74
2022/12/23 09:13:50;;;;;;;;;45.00;33.00;;;;;12.58;59.47;101132.69;146612;565;47010;-73
2022/12/23 09:16:46;;;;;;;;;39.50;33.75;;;;;12.68;59.02;101133.22;146615;601;45017;-74
2022/12/23 09:19:38;;;;;;;;;39.00;32.00;;;;;12.74;58.77;101131.72;146617;575;48014;-72
2022/12/23 09:22:33;;;;;;;;;38.50;31.75;;;;;12.78;58.61;101120.66;146612;577;46016;-72
2022/12/23 09:25:25;;;;;;;;;33.50;29.50;;;;;12.87;58.35;101115.91;146619;599;46010;-73
2022/12/23 09:28:18;;;;;;;;;37.50;32.25;;;;;12.97;58.49;101112.03;146616;619;46014;-74
2022/12/23 09:31:20;;;;;;;;;34.00;29.50;;;;;13.06;58.01;101110.75;146618;564;46020;-75
2022/12/23 09:34:14;;;;;;;;;35.75;31.25;;;;;13.20;57.98;101100.09;146613;576;46016;-72
2022/12/23 09:37:11;;;;;;;;;34.50;29.75;;;;;13.28;56.81;101102.25;146615;580;46020;-73
2022/12/23 09:40:12;;;;;;;;;33.75;27.00;;;;;13.35;57.18;101103.44;146612;590;46016;-74
2022/12/23 09:43:50;;;;;;;;;34.00;31.25;;;;;10.80;58.11;100645.94;146618;580;46020;-74
2022/12/23 09:46:52;;;;;;;;;40.25;33.00;;;;;13.48;58.09;101095.34;146616;634;46916;-73
2022/12/23 09:49:53;;;;;;;;;45.00;32.75;;;;;13.64;57.74;101096.91;146616;606;45020;-74
2022/12/23 09:53:27;;;;;;;;;52.50;39.25;;;;;11.22;58.40;100638.47;146606;622;46016;-74
2022/12/23 09:56:28;;;;;;;;;35.75;31.50;;;;;14.03;56.50;101089.97;146618;565;45028;-73
2022/12/23 10:00:18;;;;;;;;;39.50;33.25;;;;;11.65;56.83;100627.44;146617;677;46014;-72
2022/12/23 10:03:34;;;;;;;;;39.00;31.25;;;;;14.27;55.38;101071.88;146619;617;46010;-72
2022/12/23 10:06:33;;;;;;;;;35.00;30.00;;;;;14.24;53.85;101070.84;146611;582;46012;-72
2022/12/23 10:09:25;;;;;;;;;39.50;32.00;;;;;14.24;54.87;101055.22;146610;667;46021;-72
2022/12/23 10:12:47;;;;;;;;;37.00;30.50;;;;;14.30;53.85;101058.97;146610;594;46014;-71
2022/12/23 10:15:53;;;;;;;;;33.00;28.75;;;;;14.23;53.48;101048.19;146609;564;47021;-70
2022/12/23 10:19:06;;;;;;;;;34.50;28.50;;;;;11.71;54.67;100604.34;146611;578;46016;-71
2022/12/23 10:22:15;;;;;;;;;30.25;28.25;;;;;14.29;52.86;101041.50;146614;629;46012;-71
2022/12/23 10:25:28;;;;;;;;;32.25;26.50;;;;;14.36;54.13;101033.94;146606;587;47016;-72
2022/12/23 10:28:23;;;;;;;;;33.00;28.25;;;;;14.45;53.94;101029.09;146614;649;46020;-72
2022/12/23 10:31:39;;;;;;;;;31.75;26.25;;;;;14.54;52.29;101024.28;146610;599;46016;-72
2022/12/23 10:35:20;;;;;;;;;33.50;29.50;;;;;14.58;53.79;101023.59;146613;603;46020;-72
2022/12/23 10:38:40;;;;;;;;;33.25;27.25;;;;;12.05;54.45;100566.88;146611;592;46012;-71
2022/12/23 10:41:51;;;;;;;;;42.00;32.00;;;;;14.75;52.90;101019.00;146614;614;46019;-72
2022/12/23 10:45:26;;;;;;;;;35.25;27.00;;;;;12.48;53.41;100606.84;146609;599;47016;-72
2022/12/23 10:49:12;;;;;;;;;31.75;27.00;;;;;14.87;55.47;101006.44;146612;659;46020;-73
2022/12/23 10:52:16;;;;;;;;;34.75;30.25;;;;;14.98;53.23;101014.66;146610;563;46016;-72
2022/12/23 10:55:28;;;;;;;;;34.25;25.50;;;;;15.05;51.31;101007.97;146612;563;46010;-72
2022/12/23 10:58:20;;;;;;;;;27.50;25.75;;;;;15.07;51.46;101004.56;146609;565;46916;-73
2022/12/23 11:01:18;;;;;;;;;32.00;26.25;;;;;15.09;51.64;100999.41;146613;612;46010;-71
2022/12/23 11:04:49;;;;;;;;;22.50;21.00;;;;;12.58;50.86;100545.69;146612;579;46014;-74
2022/12/23 11:07:50;;;;;;;;;22.50;18.75;;;;;15.20;50.02;100987.62;146617;609;46012;-71
2022/12/23 11:10:46;;;;;;;;;25.25;23.50;;;;;15.24;49.28;100990.41;146616;628;46012;-72
2022/12/23 11:13:50;;;;;;;;;27.25;24.75;;;;;15.29;50.43;100989.69;146619;761;45020;-71
2022/12/23 11:16:52;;;;;;;;;21.75;19.50;;;;;15.36;49.86;100994.31;146613;634;46016;-72
2022/12/23 11:19:47;;;;;;;;;31.50;25.50;;;;;15.39;49.65;100989.19;146615;563;46020;-71
2022/12/23 11:22:58;;;;;;;;;29.25;24.00;;;;;15.47;50.04;100992.97;146614;599;45042;-72
2022/12/23 11:26:05;;;;;;;;;29.50;26.50;;;;;15.51;52.10;100993.97;146613;576;46010;-71
2022/12/23 11:29:08;;;;;;;;;32.25;28.25;;;;;15.58;50.06;100985.53;146612;636;46916;-72
2022/12/23 11:32:06;;;;;;;;;33.75;26.50;;;;;15.63;49.85;100982.22;146617;569;46014;-72
2022/12/23 11:34:59;;;;;;;;;29.50;25.75;;;;;15.67;49.69;100973.69;146610;660;46916;-71
2022/12/23 11:37:53;;;;;;;;;22.75;21.25;;;;;15.68;49.87;100971.97;146615;573;46021;-70
2022/12/23 11:40:50;;;;;;;;;29.25;26.50;;;;;15.69;50.95;100966.78;146615;596;46016;-72
2022/12/23 11:43:42;;;;;;;;;31.25;25.25;;;;;15.76;50.53;100967.88;146620;612;45020;-71
2022/12/23 11:46:38;;;;;;;;;32.75;26.75;;;;;15.79;50.82;100962.75;146617;654;46017;-72
2022/12/23 11:49:34;;;;;;;;;32.75;27.25;;;;;15.83;50.44;100969.88;146619;578;45020;-72
2022/12/23 11:52:32;;;;;;;;;31.50;28.00;;;;;15.87;49.76;100963.91;146614;662;46016;-72
2022/12/23 11:55:32;;;;;;;;;31.25;27.50;;;;;15.85;48.41;100962.94;146620;564;46010;-73
2022/12/23 11:58:28;;;;;;;;;30.25;28.25;;;;;15.85;48.46;100962.06;146616;569;46012;-74
2022/12/23 12:01:29;;;;;;;;;28.00;25.25;;;;;15.89;49.22;100951.78;146616;576;46021;-73
2022/12/23 12:04:29;;;;;;;;;29.00;22.50;;;;;15.69;48.15;100905.75;146613;599;46012;-75
2022/12/23 12:07:23;;;;;;;;;25.25;22.00;;;;;16.01;48.38;100953.91;146618;615;46021;-75
2022/12/23 12:10:35;;;;;;;;;24.00;23.00;;;;;16.12;49.13;100936.81;146614;569;45016;-73
2022/12/23 12:13:34;;;;;;;;;21.00;17.75;;;;;16.14;49.35;100944.72;146613;596;46020;-73
2022/12/23 12:17:08;;;;;;;;;32.00;28.75;;;;;13.94;50.91;100541.25;146617;613;45035;-73
2022/12/23 12:20:50;;;;;;;;;26.50;23.50;;;;;16.41;50.97;100931.59;146617;633;46020;-73
2022/12/23 12:24:16;;;;;;;;;29.00;26.00;;;;;14.20;50.16;100516.94;146614;586;46016;-74
2022/12/23 12:27:11;;;;;;;;;34.25;27.75;;;;;16.77;46.74;100937.09;146619;579;46020;-74
2022/12/23 12:30:09;;;;;;;;;29.75;24.75;;;;;16.92;47.34;100941.03;146612;593;46016;-73
2022/12/23 12:33:13;;;;;;;;;31.50;26.50;;;;;17.05;47.86;100937.91;146615;579;46010;-73
2022/12/23 12:36:30;;;;;;;;;35.75;30.75;;;;;17.23;46.98;100932.28;146613;584;46012;-72
2022/12/23 12:39:46;;;;;;;;;35.25;29.00;;;;;17.32;48.08;100935.16;146618;608;46014;-74
2022/12/23 12:42:44;;;;;;;;;34.50;27.50;;;;;17.46;47.75;100935.53;146612;646;46016;-76
2022/12/23 12:45:50;;;;;;;;;32.00;27.00;;;;;17.61;46.89;100930.69;146618;639;46021;-78
2022/12/23 12:49:13;;;;;;;;;40.25;32.25;;;;;17.64;48.21;100915.03;146613;638;46016;-73
2022/12/23 12:52:19;;;;;;;;;33.75;27.50;;;;;17.90;46.37;100941.94;146615;588;46021;-74
2022/12/23 12:55:32;;;;;;;;;34.00;28.75;;;;;17.97;48.20;100940.34;146604;612;47916;-75
2022/12/23 12:58:27;;;;;;;;;31.00;27.00;;;;;18.08;45.33;100943.25;146617;577;46020;-74
2022/12/23 13:01:45;;;;;;;;;25.75;23.50;;;;;18.16;48.01;100946.94;146614;625;46016;-74
2022/12/23 13:05:26;;;;;;;;;27.75;24.50;;;;;18.23;45.74;100969.88;146614;578;46020;-74
2022/12/23 13:09:24;;;;;;;;;26.00;23.00;;;;;17.79;47.58;100948.66;146611;569;46016;-74
2022/12/23 13:12:48;;;;;;;;;20.25;18.75;;;;;17.37;45.17;100953.62;146613;699;47010;-74
2022/12/23 13:16:24;;;;;;;;;25.50;23.00;;;;;14.32;48.96;100550.38;146612;660;46017;-73
2022/12/23 13:20:06;;;;;;;;;36.50;30.00;;;;;16.49;51.00;100966.75;146613;580;46010;-73
2022/12/23 13:23:13;;;;;;;;;36.25;28.75;;;;;16.54;50.36;100967.81;146612;567;46016;-74
2022/12/23 13:26:17;;;;;;;;;34.25;28.75;;;;;16.76;49.88;100977.25;146616;579;46010;-75
2022/12/23 13:29:40;;;;;;;;;33.50;30.25;;;;;17.03;51.24;100943.09;146608;599;46017;-74
2022/12/23 13:33:27;;;;;;;;;39.25;30.50;;;;;16.20;50.35;100719.94;146615;620;46010;-74
2022/12/23 13:36:46;;;;;;;;;48.75;38.50;;;;;18.11;50.72;100975.69;146612;594;46015;-74
2022/12/23 13:40:14;;;;;;;;;35.00;31.00;;;;;18.48;48.00;100958.19;146614;676;46020;-75
2022/12/23 13:43:14;;;;;;;;;33.50;29.00;;;;;18.64;45.96;100969.94;146612;660;46916;-73
2022/12/23 13:46:17;;;;;;;;;39.25;31.25;;;;;18.60;44.26;100965.47;146617;610;46010;-73
2022/12/23 13:49:25;;;;;;;;;34.75;30.75;;;;;18.32;45.70;100964.84;146611;648;46016;-73
2022/12/23 13:53:04;;;;;;;;;36.50;30.75;;;;;15.63;47.49;100563.13;146609;655;48010;-73
2022/12/23 13:56:49;;;;;;;;;38.25;31.75;;;;;17.36;48.31;100964.97;146615;563;46012;-75
2022/12/23 13:59:58;;;;;;;;;35.75;29.25;;;;;16.80;49.42;100972.97;146616;658;46021;-75
2022/12/23 14:03:25;;;;;;;;;31.75;29.00;;;;;13.90;53.46;100529.84;146612;628;46037;-73
2022/12/23 14:06:47;;;;;;;;;34.75;29.50;;;;;16.19;52.39;100977.13;146614;614;46010;-73
2022/12/23 14:09:42;;;;;;;;;38.25;32.00;;;;;15.96;50.98;100981.63;146610;614;46016;-74
2022/12/23 14:12:41;;;;;;;;;41.50;34.25;;;;;15.86;51.83;100983.06;146614;570;46020;-74
2022/12/23 14:16:02;;;;;;;;;52.50;40.75;;;;;15.95;53.73;100987.72;146613;690;46016;-74
2022/12/23 14:19:32;;;;;;;;;44.00;36.50;;;;;16.01;53.31;100987.91;146615;660;46020;-74